ESMSESMK

Guest
Details From ESMS - Malmo Sturup
To ESMK - Kristianstad
Flight Number -
Tags Generated
Created
Modified
Stats Distance 34 nm / 63 km
Max Altitude 0 ft / 0 m
Waypoints 2
Social Downloads 1
Likes 0
Share VATSIM

Download

Looking for another format? Having issues loading an existing format? Contact us
Advertisement - Login to hide

Notes

Generated

Route

ESMS ESMK

ID Type Via Altitude Latitude Longitude Leg Dist Tot Dist Heading (true) Name
O ESMS APT - 0 ft / 0 m 55.52314˚ 13.35978˚ - 0 nm - -
O ESMK APT - 0 ft / 0 m 55.91182˚ 14.08333˚ 33 nm 33 nm 46° / 47° -

Altitude Profile

Advertisement - Login to hide

ESMS

Details ICAO ESMS (MMX)
Name Malmo Sturup
Region Sweden
Timezone Europe/Stockholm (UTC+1.0)
Stats Elevation 236 ft / 72 m (AMSL)
Location 55.528883° 13.371109°
Runways 2
Magnetic Variation 3.964° E

METAR

ESMS 150820Z 24011KT 9999 BKN008 BKN010 OVC029 03/02 Q0990 R17/29//95

Decode

TAF

TAF ESMS 150458Z 1506/1606 24012KT 9999 FEW008 BKN020 TEMPO 1506/1516 4000 -RASN BR BKN008 TEMPO 1516/1520 BKN008 TEMPO 1520/1606 3000 BR BKN005 FEW020CB

Decode

Departure Runways

ID Width Length Bearing (true) Bearing (mag) Surface Threshold Offset Overrun Length
11 59 ft / 18 m 2,609 ft / 795 m 105.31° 101.35° Asphalt 0 ft / 0 m 0 ft / 0 m
17 148 ft / 45 m 9,176 ft / 2,797 m 173.36° 169.40° Asphalt 0 ft / 0 m 98 ft / 30 m
29 59 ft / 18 m 2,609 ft / 795 m 285.32° 281.36° Asphalt 0 ft / 0 m 0 ft / 0 m
35 148 ft / 45 m 9,176 ft / 2,797 m 353.37° 349.41° Asphalt 0 ft / 0 m 98 ft / 30 m

ESMK

Details ICAO ESMK (KID)
Name Kristianstad
Region Sweden
Timezone Europe/Stockholm (UTC+1.0)
Stats Elevation 76 ft / 23 m (AMSL)
Location 55.921686° 14.085535°
Runways 1
Magnetic Variation 4.234° E

METAR

ESMK 150820Z 25009KT 9999 SCT011 03/03 Q0989

Decode

TAF

Not found

Destination Runways

ID Width Length Bearing (true) Bearing (mag) Surface Threshold Offset Overrun Length
01 148 ft / 45 m 7,259 ft / 2,213 m 7.13° 2.90° Asphalt 0 ft / 0 m 0 ft / 0 m
19 148 ft / 45 m 7,259 ft / 2,213 m 187.13° 182.90° Asphalt 0 ft / 0 m 0 ft / 0 m

Approach Navaids

Runway Type Ident Frequency Range Bearing (true) Bearing (mag) Slope Elevation
19 Localiser MK 108.50 MHz 18 nm / 33 km 187.13° 182.90° - 76 ft / 23 m (AMSL)
19 Glidescope MK 108.50 MHz 10 nm / 19 km 187.13° 182.90° 3.25° 76 ft / 23 m (AMSL)

Popular Alternatives